itsyourturn.com alexa rank chart, itsyourturn.com alexa rank daily changes

itsyourturn.com alexa rank chart, itsyourturn.com alexa rank daily changes

itsyourturn.com
Actual rank:
80 102

RANK HISTORY

Date Rank Diff
2018/04/20 80 102 +7 582
2018/04/19 72 520 -6 389
2018/04/18 78 909 +27 407
2018/04/17 51 502 -1 217
2018/04/16 52 719 -13 768
2018/04/15 66 487 -11 822
2018/04/14 78 309 -4 477
2018/04/13 82 786 -8 908
2018/04/12 91 694 +11 074
2018/04/11 80 620 +24 827
2018/04/10 55 793 +9 691
2018/04/09 46 102 -42 817
2018/04/08 88 919 +17 753
2018/04/07 71 166 -5 040
2018/04/06 76 206 +9 980
2018/04/05 66 226 -5 638
2018/04/04 71 864 +15 347
2018/04/03 56 517 -375
2018/04/02 56 892 -13 097
2018/04/01 69 989 +10 176
2018/03/31 59 813 -3 671
2018/03/30 63 484 -12 788
2018/03/29 76 272 +616
2018/03/28 75 656 +21 432
2018/03/27 54 224 -1 493
2018/03/26 55 717 -4 319
2018/03/25 60 036 -5 677
2018/03/24 65 713 +148
2018/03/23 65 565 -14 846
2018/03/22 80 411 +19 711
2018/03/21 60 700 +14 306
2018/03/20 46 394 +1 076
2018/03/19 45 318 -25 793
2018/03/18 71 111 -10 566
2018/03/17 81 677 -640
2018/03/16 82 317 +19 243
2018/03/15 63 074 -12 103
2018/03/14 75 177 +22 207
2018/03/13 52 970 -6 759
2018/03/12 59 729 +4 634
2018/03/11 55 095 -2 723
2018/03/10 57 818 -16 559
2018/03/09 74 377 -17 142
2018/03/08 91 519 +17 633
2018/03/07 73 886 +4 515
2018/03/06 69 371 +4 201
2018/03/05 65 170 +8 644
2018/03/04 56 526 -13 585
2018/03/03 70 111 -38 975
2018/03/02 109 086 +36 261
2018/03/01 72 825 +2 805
2018/02/28 70 020 +16 552
2018/02/27 53 468 -16 954
2018/02/26 70 422 +437
2018/02/25 69 985 +9 311
2018/02/24 60 674 -40 413
2018/02/23 101 087 +8 489
2018/02/22 92 598 +27 879
2018/02/21 64 719 +8 051
2018/02/20 56 668 -9 694
2018/02/19 66 362

WIDGET FOR YOUR SITE

DOMAINS WITH THE NEAREST RANK

Domain Rank
sexvcl.com 80 097
evoball.net 80 098
meteo.hr 80 099
mp3lqe.co 80 100
azadliq.info 80 101
itsyourturn.com 80 102
lycamobile.es 80 103
myistore.co.za 80 104
minsvyaz.ru 80 105
91p23.space 80 106
forum-1c.ru 80 107

DOMAINS WITH THE NEAREST RANK BY TLD .com

Domain Rank
baixarfilmesdublados.com 80 085
dd4.com 80 091
sexy-parade.com 80 095
tarihiolaylar.com 80 096
sexvcl.com 80 097
itsyourturn.com 80 102
magasins-u.com 80 109
idmprogram.com 80 111
bestcolleges.com 80 112
parejastraviesasmaduras.com 80 113
ifsworld.com 80 114